SILO ALERT LOG
| Silo ID | Alert Type | Alert Message | Silo Type | Points | Depth (mm) | Strength | Temperature (°C) | Humidity (%) | Height (mm) | Volume (㎥) | Weight (t) | Flag | Time |
|---|---|---|---|---|---|---|---|---|---|---|---|---|---|
| DJHNR01 | Humidity | 습도센서 측정값이 80% 초과 | 호퍼 | 471 | 4312 | 4891 | 4.9 | 99.9 | 11067 | 472.52 | 298.727 | 13 | 2024-01-04 01:39:31.000 |
| DJSAD16 | Humidity | 습도센서 측정값이 80% 초과 | 평 | 88 | 6190 | 3414 | 4.7 | 80.1 | 1389 | 138.331 | 87.453 | 11 | 2024-01-04 01:39:30.000 |
| DJSAD18 | Humidity | 습도센서 측정값이 80% 초과 | 평 | 120 | 1574 | 5623 | 5.2 | 80.8 | 6005 | 597.999 | 378.055 | 11 | 2024-01-04 01:39:30.000 |
| DJSSD11 | Temperature | 온도센서 측정값이 0도 미만 | 호퍼 | 441 | 7398 | 147 | -2.8 | 83.4 | 3831 | 28.706 | 15.645 | 0 | 2024-01-04 01:39:30.000 |
| DJSSD11 | Humidity | 습도센서 측정값이 80% 초과 | 호퍼 | 441 | 7398 | 147 | -2.8 | 83.4 | 3831 | 28.706 | 15.645 | 0 | 2024-01-04 01:39:30.000 |
| DJSAD11 | Humidity | 습도센서 측정값이 80% 초과 | 평 | 290 | 1503 | 13117 | 2.6 | 80.2 | 6076 | 864.687 | 546.655 | 11 | 2024-01-04 01:39:30.000 |
| DJHNR12 | Temperature | 온도센서 측정값이 0도 미만 | 호퍼 | 210 | 4005 | 171 | -2.1 | 82.8 | 6374 | 83.553 | 52.822 | 0 | 2024-01-04 01:39:29.000 |
| DJHNR12 | Humidity | 습도센서 측정값이 80% 초과 | 호퍼 | 210 | 4005 | 171 | -2.1 | 82.8 | 6374 | 83.553 | 52.822 | 0 | 2024-01-04 01:39:29.000 |
| DJHNR03 | Temperature | 온도센서 상태 이상 | 호퍼 | 0 | 15500 | 0 | -999 | -999 | -119 | 0 | 0 | 31 | 2024-01-04 01:39:24.000 |
| DJSSD12 | Temperature | 온도센서 상태 이상 | 호퍼 | 0 | 11350 | 0 | -999 | -999 | -120 | 0 | 0 | 31 | 2024-01-04 01:39:24.000 |
| DJSAD03 | Humidity | 습도센서 측정값이 80% 초과 | 평 | 449 | 1745 | 6172 | 3.6 | 84.5 | 7034 | 291.205 | 184.1 | 0 | 2024-01-04 00:39:40.000 |
| DJSAD01 | Humidity | 습도센서 측정값이 80% 초과 | 평 | 445 | 1467 | 7285 | 2.3 | 88.9 | 7312 | 302.705 | 191.37 | 0 | 2024-01-04 00:39:40.000 |
| DJDJD03 | Humidity | 습도센서 측정값이 80% 초과 | 평 | 53 | 5844 | 5059 | 3.4 | 80.5 | 1835 | 222.425 | 140.617 | 0 | 2024-01-04 00:39:40.000 |
| DJSAD05 | Humidity | 습도센서 측정값이 80% 초과 | 평 | 468 | 1587 | 8856 | 1.8 | 80.1 | 7192 | 297.761 | 188.244 | 0 | 2024-01-04 00:39:39.000 |
| DJSAD02 | Humidity | 습도센서 측정값이 80% 초과 | 평 | 473 | 856 | 7380 | 3.1 | 87.7 | 7923 | 328.007 | 207.366 | 13 | 2024-01-04 00:39:38.000 |
| DJSSD04 | Temperature | 온도센서 상태 이상 | 평 | 0 | 8200 | 0 | -999 | -999 | -120 | -16.702 | 0 | 31 | 2024-01-04 00:39:33.000 |
| DJSAD12 | Humidity | 습도센서 측정값이 80% 초과 | 평 | 0 | 7700 | 0 | 3.9 | 86.1 | -120 | -17.075 | 0 | 31 | 2024-01-04 00:39:33.000 |
| DJSSD01 | Humidity | 습도센서 측정값이 80% 초과 | 평 | 808 | 2562 | 4642 | 6.5 | 82.8 | 5517 | 767.871 | 485.448 | 0 | 2024-01-04 00:39:33.000 |
| DJSAD07 | Humidity | 습도센서 측정값이 80% 초과 | 평 | 653 | 2548 | 2680 | 4.6 | 85.6 | 5031 | 715.996 | 452.653 | 0 | 2024-01-04 00:39:32.000 |
| DJHNR11 | Temperature | 온도센서 측정값이 0도 미만 | 호퍼 | 86 | 3941 | 3005 | -1.4 | 79.7 | 6438 | 84.926 | 53.69 | 0 | 2024-01-04 00:39:32.000 |
[첫 페이지] [10190] [10191] [10192] [10193] 10194 [10195] [10196] [10197] [10198] [마지막 페이지]